sensor_id;sensor_type;location;lat;lon;timestamp;noise_LAeq;noise_LA_min;noise_LA_max;noise_LA01;noise_LA95
67300;Laerm;57658;51.436;5.980;2022-10-15T00:00:00;29.97;28.94;34.14;;
67300;Laerm;57658;51.436;5.980;2022-10-15T00:00:11;53.07;28.79;64.51;;
67300;Laerm;57658;51.436;5.980;2022-10-15T00:00:21;31.58;28.92;37.86;;
67300;Laerm;57658;51.436;5.980;2022-10-15T00:00:31;30.75;29.23;34.27;;
67300;Laerm;57658;51.436;5.980;2022-10-15T00:00:42;30.42;29.46;31.68;;
67300;Laerm;57658;51.436;5.980;2022-10-15T00:00:52;30.18;29.26;34.04;;
67300;Laerm;57658;51.436;5.980;2022-10-15T00:01:16;30.51;29.29;32.88;;
67300;Laerm;57658;51.436;5.980;2022-10-15T00:01:26;30.51;29.51;32.48;;
67300;Laerm;57658;51.436;5.980;2022-10-15T00:01:37;30.55;29.39;34.58;;
67300;Laerm;57658;51.436;5.980;2022-10-15T00:01:47;30.89;29.46;32.32;;
67300;Laerm;57658;51.436;5.980;2022-10-15T00:01:57;32.64;30.11;35.22;;
67300;Laerm;57658;51.436;5.980;2022-10-15T00:02:07;46.48;33.48;52.97;;
67300;Laerm;57658;51.436;5.980;2022-10-15T00:02:18;59.04;50.24;64.61;;
67300;Laerm;57658;51.436;5.980;2022-10-15T00:02:28;53.18;43.77;59.75;;
67300;Laerm;57658;51.436;5.980;2022-10-15T00:02:38;42.87;39.42;45.48;;
67300;Laerm;57658;51.436;5.980;2022-10-15T00:02:48;40.24;37.64;42.43;;
67300;Laerm;57658;51.436;5.980;2022-10-15T00:02:59;48.28;39.45;52.33;;
67300;Laerm;57658;51.436;5.980;2022-10-15T00:03:09;58.00;47.17;63.95;;
67300;Laerm;57658;51.436;5.980;2022-10-15T00:03:20;67.68;59.64;71.18;;
67300;Laerm;57658;51.436;5.980;2022-10-15T00:03:30;58.23;51.34;65.23;;
67300;Laerm;57658;51.436;5.980;2022-10-15T00:03:41;50.22;42.70;57.58;;
67300;Laerm;57658;51.436;5.980;2022-10-15T00:03:52;40.88;36.68;43.57;;
67300;Laerm;57658;51.436;5.980;2022-10-15T00:04:02;36.71;34.08;39.48;;
67300;Laerm;57658;51.436;5.980;2022-10-15T00:04:12;36.05;33.82;38.19;;
67300;Laerm;57658;51.436;5.980;2022-10-15T00:04:23;33.23;31.01;36.20;;
67300;Laerm;57658;51.436;5.980;2022-10-15T00:04:33;31.58;29.95;34.26;;
67300;Laerm;57658;51.436;5.980;2022-10-15T00:04:43;30.96;29.62;33.37;;
67300;Laerm;57658;51.436;5.980;2022-10-15T00:04:54;30.37;29.25;31.54;;
67300;Laerm;57658;51.436;5.980;2022-10-15T00:05:04;30.33;29.19;31.60;;
67300;Laerm;57658;51.436;5.980;2022-10-15T00:05:15;30.47;29.24;31.80;;
67300;Laerm;57658;51.436;5.980;2022-10-15T00:05:25;30.54;29.20;39.73;;
67300;Laerm;57658;51.436;5.980;2022-10-15T00:05:36;30.19;28.73;31.46;;
67300;Laerm;57658;51.436;5.980;2022-10-15T00:05:46;30.43;29.38;33.49;;
67300;Laerm;57658;51.436;5.980;2022-10-15T00:05:57;36.58;29.95;44.12;;
67300;Laerm;57658;51.436;5.980;2022-10-15T00:06:08;56.13;42.58;66.46;;
67300;Laerm;57658;51.436;5.980;2022-10-15T00:06:19;55.92;41.56;63.99;;
67300;Laerm;57658;51.436;5.980;2022-10-15T00:06:30;42.21;35.52;45.26;;
67300;Laerm;57658;51.436;5.980;2022-10-15T00:06:40;32.27;29.42;37.20;;
67300;Laerm;57658;51.436;5.980;2022-10-15T00:06:50;30.37;29.36;31.41;;
67300;Laerm;57658;51.436;5.980;2022-10-15T00:07:01;30.55;29.22;33.00;;
67300;Laerm;57658;51.436;5.980;2022-10-15T00:07:11;30.46;29.20;31.76;;
67300;Laerm;57658;51.436;5.980;2022-10-15T00:07:21;30.36;28.84;31.58;;
67300;Laerm;57658;51.436;5.980;2022-10-15T00:07:31;30.37;29.28;32.82;;
67300;Laerm;57658;51.436;5.980;2022-10-15T00:07:42;30.11;29.13;31.44;;
67300;Laerm;57658;51.436;5.980;2022-10-15T00:07:52;31.23;29.06;43.93;;
67300;Laerm;57658;51.436;5.980;2022-10-15T00:08:02;30.40;29.44;32.34;;
67300;Laerm;57658;51.436;5.980;2022-10-15T00:08:13;30.95;29.41;41.52;;
67300;Laerm;57658;51.436;5.980;2022-10-15T00:08:23;34.79;29.75;47.60;;
67300;Laerm;57658;51.436;5.980;2022-10-15T00:08:33;34.63;29.64;44.50;;
67300;Laerm;57658;51.436;5.980;2022-10-15T00:08:44;30.36;29.15;31.35;;
67300;Laerm;57658;51.436;5.980;2022-10-15T00:08:55;30.14;29.06;31.89;;
67300;Laerm;57658;51.436;5.980;2022-10-15T00:09:05;30.03;28.93;31.97;;
67300;Laerm;57658;51.436;5.980;2022-10-15T00:09:15;29.96;29.00;31.61;;
67300;Laerm;57658;51.436;5.980;2022-10-15T00:09:26;30.20;29.21;33.20;;
67300;Laerm;57658;51.436;5.980;2022-10-15T00:09:36;30.15;29.01;31.27;;
67300;Laerm;57658;51.436;5.980;2022-10-15T00:09:46;30.34;29.22;34.10;;
67300;Laerm;57658;51.436;5.980;2022-10-15T00:09:56;30.08;28.96;31.17;;
67300;Laerm;57658;51.436;5.980;2022-10-15T00:10:07;30.03;28.97;31.14;;
67300;Laerm;57658;51.436;5.980;2022-10-15T00:10:17;30.08;29.06;31.29;;
67300;Laerm;57658;51.436;5.980;2022-10-15T00:10:27;30.24;28.47;40.24;;
67300;Laerm;57658;51.436;5.980;2022-10-15T00:10:37;30.02;29.04;32.26;;
67300;Laerm;57658;51.436;5.980;2022-10-15T00:10:48;30.24;29.07;36.69;;
67300;Laerm;57658;51.436;5.980;2022-10-15T00:11:02;30.54;29.12;37.82;;
67300;Laerm;57658;51.436;5.980;2022-10-15T00:11:17;30.51;29.31;36.04;;
67300;Laerm;57658;51.436;5.980;2022-10-15T00:11:28;30.76;29.17;43.99;;
67300;Laerm;57658;51.436;5.980;2022-10-15T00:11:38;30.05;29.16;31.35;;
67300;Laerm;57658;51.436;5.980;2022-10-15T00:11:49;30.81;28.87;38.82;;
67300;Laerm;57658;51.436;5.980;2022-10-15T00:11:59;30.43;29.35;31.53;;
67300;Laerm;57658;51.436;5.980;2022-10-15T00:12:09;30.50;29.44;31.82;;
67300;Laerm;57658;51.436;5.980;2022-10-15T00:12:20;30.68;29.50;35.31;;
67300;Laerm;57658;51.436;5.980;2022-10-15T00:12:30;30.43;29.20;31.51;;
67300;Laerm;57658;51.436;5.980;2022-10-15T00:12:40;30.32;29.26;31.55;;
67300;Laerm;57658;51.436;5.980;2022-10-15T00:12:51;30.75;29.70;32.12;;
67300;Laerm;57658;51.436;5.980;2022-10-15T00:13:02;30.49;29.07;32.47;;
67300;Laerm;57658;51.436;5.980;2022-10-15T00:13:12;30.89;29.48;40.54;;
67300;Laerm;57658;51.436;5.980;2022-10-15T00:13:22;30.21;29.16;32.48;;
67300;Laerm;57658;51.436;5.980;2022-10-15T00:13:33;30.31;29.07;32.44;;
67300;Laerm;57658;51.436;5.980;2022-10-15T00:13:43;30.46;29.18;32.78;;
67300;Laerm;57658;51.436;5.980;2022-10-15T00:13:55;30.90;29.32;39.16;;
67300;Laerm;57658;51.436;5.980;2022-10-15T00:14:05;31.20;29.31;42.85;;
67300;Laerm;57658;51.436;5.980;2022-10-15T00:14:16;31.72;29.93;35.05;;
67300;Laerm;57658;51.436;5.980;2022-10-15T00:14:26;30.87;29.15;36.05;;
67300;Laerm;57658;51.436;5.980;2022-10-15T00:14:36;30.62;29.45;31.75;;
67300;Laerm;57658;51.436;5.980;2022-10-15T00:14:47;30.47;29.33;31.55;;
67300;Laerm;57658;51.436;5.980;2022-10-15T00:14:57;31.00;29.68;35.37;;
67300;Laerm;57658;51.436;5.980;2022-10-15T00:15:07;30.87;29.08;33.95;;
67300;Laerm;57658;51.436;5.980;2022-10-15T00:15:18;30.46;29.09;33.01;;
67300;Laerm;57658;51.436;5.980;2022-10-15T00:15:28;30.27;28.91;31.27;;
67300;Laerm;57658;51.436;5.980;2022-10-15T00:15:39;30.19;28.89;31.43;;
67300;Laerm;57658;51.436;5.980;2022-10-15T00:15:49;30.31;29.08;33.39;;
67300;Laerm;57658;51.436;5.980;2022-10-15T00:15:59;31.15;29.22;40.47;;
67300;Laerm;57658;51.436;5.980;2022-10-15T00:16:14;30.96;29.49;33.52;;
67300;Laerm;57658;51.436;5.980;2022-10-15T00:16:26;31.05;29.27;40.62;;
67300;Laerm;57658;51.436;5.980;2022-10-15T00:16:36;30.68;29.42;32.26;;
67300;Laerm;57658;51.436;5.980;2022-10-15T00:16:47;31.05;29.50;38.68;;
67300;Laerm;57658;51.436;5.980;2022-10-15T00:16:57;30.54;29.35;32.51;;
67300;Laerm;57658;51.436;5.980;2022-10-15T00:17:07;30.91;29.44;41.54;;
67300;Laerm;57658;51.436;5.980;2022-10-15T00:17:17;30.69;29.62;33.79;;
67300;Laerm;57658;51.436;5.980;2022-10-15T00:17:28;31.15;29.70;36.34;;
67300;Laerm;57658;51.436;5.980;2022-10-15T00:17:38;31.02;29.76;32.59;;
67300;Laerm;57658;51.436;5.980;2022-10-15T00:17:48;34.07;31.04;45.67;;
67300;Laerm;57658;51.436;5.980;2022-10-15T00:17:59;32.10;30.76;33.56;;
67300;Laerm;57658;51.436;5.980;2022-10-15T00:18:09;32.51;30.51;34.67;;
67300;Laerm;57658;51.436;5.980;2022-10-15T00:18:19;31.19;29.43;34.22;;
67300;Laerm;57658;51.436;5.980;2022-10-15T00:18:30;30.65;29.15;35.78;;
67300;Laerm;57658;51.436;5.980;2022-10-15T00:18:40;30.77;29.43;36.46;;
67300;Laerm;57658;51.436;5.980;2022-10-15T00:18:51;31.08;29.51;39.37;;
67300;Laerm;57658;51.436;5.980;2022-10-15T00:19:01;30.89;28.85;35.91;;
67300;Laerm;57658;51.436;5.980;2022-10-15T00:19:11;30.25;28.80;34.99;;
67300;Laerm;57658;51.436;5.980;2022-10-15T00:19:22;30.09;29.01;32.30;;
67300;Laerm;57658;51.436;5.980;2022-10-15T00:19:32;30.15;28.63;31.07;;
67300;Laerm;57658;51.436;5.980;2022-10-15T00:19:42;30.20;29.17;32.11;;
67300;Laerm;57658;51.436;5.980;2022-10-15T00:19:52;30.31;29.28;31.50;;
67300;Laerm;57658;51.436;5.980;2022-10-15T00:20:04;30.37;29.27;31.52;;
67300;Laerm;57658;51.436;5.980;2022-10-15T00:20:14;30.71;29.52;32.67;;
67300;Laerm;57658;51.436;5.980;2022-10-15T00:20:25;30.34;29.27;31.39;;
67300;Laerm;57658;51.436;5.980;2022-10-15T00:20:35;30.43;29.09;31.78;;
67300;Laerm;57658;51.436;5.980;2022-10-15T00:20:45;30.34;28.93;31.43;;
67300;Laerm;57658;51.436;5.980;2022-10-15T00:20:56;30.18;29.07;31.36;;
67300;Laerm;57658;51.436;5.980;2022-10-15T00:21:07;30.26;29.04;32.27;;
67300;Laerm;57658;51.436;5.980;2022-10-15T00:21:18;30.51;29.06;32.89;;
67300;Laerm;57658;51.436;5.980;2022-10-15T00:21:29;30.83;29.44;34.95;;
67300;Laerm;57658;51.436;5.980;2022-10-15T00:21:39;30.58;29.17;32.06;;
67300;Laerm;57658;51.436;5.980;2022-10-15T00:21:50;30.57;29.42;31.88;;
67300;Laerm;57658;51.436;5.980;2022-10-15T00:22:00;30.51;29.16;36.92;;
67300;Laerm;57658;51.436;5.980;2022-10-15T00:22:11;31.57;29.41;45.27;;
67300;Laerm;57658;51.436;5.980;2022-10-15T00:22:21;30.92;29.39;40.29;;
67300;Laerm;57658;51.436;5.980;2022-10-15T00:22:31;30.60;29.38;33.46;;
67300;Laerm;57658;51.436;5.980;2022-10-15T00:22:42;30.66;29.58;32.33;;
67300;Laerm;57658;51.436;5.980;2022-10-15T00:22:52;30.56;29.39;35.61;;
67300;Laerm;57658;51.436;5.980;2022-10-15T00:23:03;30.66;29.29;35.83;;
67300;Laerm;57658;51.436;5.980;2022-10-15T00:23:13;30.28;29.13;31.75;;
67300;Laerm;57658;51.436;5.980;2022-10-15T00:23:23;30.19;28.82;31.96;;
67300;Laerm;57658;51.436;5.980;2022-10-15T00:23:34;30.48;29.35;34.80;;
67300;Laerm;57658;51.436;5.980;2022-10-15T00:23:45;30.94;29.41;38.93;;
67300;Laerm;57658;51.436;5.980;2022-10-15T00:23:56;31.25;29.64;33.61;;
67300;Laerm;57658;51.436;5.980;2022-10-15T00:24:06;31.77;29.89;33.91;;
67300;Laerm;57658;51.436;5.980;2022-10-15T00:24:16;30.94;29.09;33.00;;
67300;Laerm;57658;51.436;5.980;2022-10-15T00:24:27;30.59;29.29;35.73;;
67300;Laerm;57658;51.436;5.980;2022-10-15T00:24:37;33.27;31.27;35.67;;
67300;Laerm;57658;51.436;5.980;2022-10-15T00:24:47;32.94;29.74;36.24;;
67300;Laerm;57658;51.436;5.980;2022-10-15T00:24:57;30.18;28.99;32.14;;
67300;Laerm;57658;51.436;5.980;2022-10-15T00:25:08;30.47;29.32;33.32;;
67300;Laerm;57658;51.436;5.980;2022-10-15T00:25:18;30.34;29.16;32.30;;
67300;Laerm;57658;51.436;5.980;2022-10-15T00:25:29;30.52;29.39;32.75;;
67300;Laerm;57658;51.436;5.980;2022-10-15T00:25:39;32.20;29.43;40.09;;
67300;Laerm;57658;51.436;5.980;2022-10-15T00:25:59;33.85;30.03;45.61;;
67300;Laerm;57658;51.436;5.980;2022-10-15T00:26:11;41.02;30.06;54.04;;
67300;Laerm;57658;51.436;5.980;2022-10-15T00:26:23;31.42;29.57;35.96;;
67300;Laerm;57658;51.436;5.980;2022-10-15T00:26:34;30.75;29.42;39.47;;
67300;Laerm;57658;51.436;5.980;2022-10-15T00:26:44;30.63;29.55;33.12;;
67300;Laerm;57658;51.436;5.980;2022-10-15T00:26:54;30.68;29.44;35.47;;
67300;Laerm;57658;51.436;5.980;2022-10-15T00:27:05;30.34;29.14;31.55;;
67300;Laerm;57658;51.436;5.980;2022-10-15T00:27:15;30.53;29.08;37.49;;
67300;Laerm;57658;51.436;5.980;2022-10-15T00:27:25;30.47;29.24;34.43;;
67300;Laerm;57658;51.436;5.980;2022-10-15T00:27:36;30.48;29.21;33.91;;
67300;Laerm;57658;51.436;5.980;2022-10-15T00:27:46;30.82;29.53;38.35;;
67300;Laerm;57658;51.436;5.980;2022-10-15T00:27:56;30.69;29.31;34.49;;
67300;Laerm;57658;51.436;5.980;2022-10-15T00:28:07;30.53;29.42;31.94;;
67300;Laerm;57658;51.436;5.980;2022-10-15T00:28:17;31.00;29.44;41.07;;
67300;Laerm;57658;51.436;5.980;2022-10-15T00:28:27;30.45;29.09;38.13;;
67300;Laerm;57658;51.436;5.980;2022-10-15T00:28:37;30.45;29.32;32.67;;
67300;Laerm;57658;51.436;5.980;2022-10-15T00:28:48;30.61;29.25;32.43;;
67300;Laerm;57658;51.436;5.980;2022-10-15T00:29:00;30.69;29.40;33.50;;
67300;Laerm;57658;51.436;5.980;2022-10-15T00:29:10;30.46;29.43;32.24;;
67300;Laerm;57658;51.436;5.980;2022-10-15T00:29:21;31.65;29.78;38.79;;
67300;Laerm;57658;51.436;5.980;2022-10-15T00:29:31;34.00;30.28;44.88;;
67300;Laerm;57658;51.436;5.980;2022-10-15T00:29:41;43.37;31.72;56.17;;
67300;Laerm;57658;51.436;5.980;2022-10-15T00:29:51;51.68;32.62;70.04;;
67300;Laerm;57658;51.436;5.980;2022-10-15T00:30:03;45.65;31.75;65.74;;
67300;Laerm;57658;51.436;5.980;2022-10-15T00:30:13;38.32;29.94;57.14;;
67300;Laerm;57658;51.436;5.980;2022-10-15T00:30:23;31.00;29.30;33.90;;
67300;Laerm;57658;51.436;5.980;2022-10-15T00:30:34;30.90;29.80;33.90;;
67300;Laerm;57658;51.436;5.980;2022-10-15T00:30:44;31.05;29.91;33.26;;
67300;Laerm;57658;51.436;5.980;2022-10-15T00:31:01;31.85;29.88;41.75;;
67300;Laerm;57658;51.436;5.980;2022-10-15T00:31:13;31.25;29.34;36.74;;
67300;Laerm;57658;51.436;5.980;2022-10-15T00:31:24;30.44;29.11;31.67;;
67300;Laerm;57658;51.436;5.980;2022-10-15T00:31:36;31.27;29.31;44.73;;
67300;Laerm;57658;51.436;5.980;2022-10-15T00:31:46;30.53;28.84;32.55;;
67300;Laerm;57658;51.436;5.980;2022-10-15T00:31:56;32.02;29.88;48.30;;
67300;Laerm;57658;51.436;5.980;2022-10-15T00:32:06;48.86;30.08;63.44;;
67300;Laerm;57658;51.436;5.980;2022-10-15T00:32:17;32.15;30.21;36.12;;
67300;Laerm;57658;51.436;5.980;2022-10-15T00:32:27;31.42;30.01;32.64;;
67300;Laerm;57658;51.436;5.980;2022-10-15T00:32:38;30.90;29.67;32.47;;
67300;Laerm;57658;51.436;5.980;2022-10-15T00:32:48;30.94;29.62;32.54;;
67300;Laerm;57658;51.436;5.980;2022-10-15T00:32:58;30.52;29.41;33.05;;
67300;Laerm;57658;51.436;5.980;2022-10-15T00:33:09;30.89;29.69;32.62;;
67300;Laerm;57658;51.436;5.980;2022-10-15T00:33:19;31.36;29.61;36.35;;
67300;Laerm;57658;51.436;5.980;2022-10-15T00:33:31;30.53;29.19;35.48;;
67300;Laerm;57658;51.436;5.980;2022-10-15T00:33:41;30.19;29.36;31.61;;
67300;Laerm;57658;51.436;5.980;2022-10-15T00:33:52;30.04;28.82;32.12;;
67300;Laerm;57658;51.436;5.980;2022-10-15T00:34:03;29.90;28.75;31.15;;
67300;Laerm;57658;51.436;5.980;2022-10-15T00:34:13;30.00;29.00;31.49;;
67300;Laerm;57658;51.436;5.980;2022-10-15T00:34:24;30.11;28.80;33.63;;
67300;Laerm;57658;51.436;5.980;2022-10-15T00:34:34;30.52;28.95;34.77;;
67300;Laerm;57658;51.436;5.980;2022-10-15T00:34:45;30.71;29.20;34.37;;
67300;Laerm;57658;51.436;5.980;2022-10-15T00:34:55;30.74;29.66;33.84;;
67300;Laerm;57658;51.436;5.980;2022-10-15T00:35:05;30.38;29.42;31.57;;
67300;Laerm;57658;51.436;5.980;2022-10-15T00:35:16;30.37;28.91;36.22;;
67300;Laerm;57658;51.436;5.980;2022-10-15T00:35:26;30.49;29.22;38.01;;
67300;Laerm;57658;51.436;5.980;2022-10-15T00:35:36;30.54;29.16;33.86;;
67300;Laerm;57658;51.436;5.980;2022-10-15T00:35:47;31.18;29.89;32.59;;
67300;Laerm;57658;51.436;5.980;2022-10-15T00:36:11;30.29;29.05;31.63;;
67300;Laerm;57658;51.436;5.980;2022-10-15T00:36:23;31.51;29.55;38.57;;
67300;Laerm;57658;51.436;5.980;2022-10-15T00:36:34;41.06;30.74;56.85;;
67300;Laerm;57658;51.436;5.980;2022-10-15T00:36:45;39.31;32.25;48.38;;
67300;Laerm;57658;51.436;5.980;2022-10-15T00:36:55;68.96;32.54;76.91;;
67300;Laerm;57658;51.436;5.980;2022-10-15T00:37:05;69.53;53.93;77.08;;
67300;Laerm;57658;51.436;5.980;2022-10-15T00:37:16;62.48;54.40;71.77;;
67300;Laerm;57658;51.436;5.980;2022-10-15T00:37:26;62.92;53.95;71.83;;
67300;Laerm;57658;51.436;5.980;2022-10-15T00:37:37;63.22;53.84;74.27;;
67300;Laerm;57658;51.436;5.980;2022-10-15T00:37:47;76.80;55.41;85.10;;
67300;Laerm;57658;51.436;5.980;2022-10-15T00:37:57;81.90;77.76;86.51;;
67300;Laerm;57658;51.436;5.980;2022-10-15T00:38:08;82.25;72.98;88.97;;
67300;Laerm;57658;51.436;5.980;2022-10-15T00:38:18;63.98;55.64;72.10;;
67300;Laerm;57658;51.436;5.980;2022-10-15T00:38:28;66.51;52.63;73.94;;
67300;Laerm;57658;51.436;5.980;2022-10-15T00:38:39;48.31;42.66;54.22;;
67300;Laerm;57658;51.436;5.980;2022-10-15T00:38:49;44.38;41.03;50.27;;
67300;Laerm;57658;51.436;5.980;2022-10-15T00:39:00;41.75;35.12;45.52;;
67300;Laerm;57658;51.436;5.980;2022-10-15T00:39:11;34.68;31.52;40.04;;
67300;Laerm;57658;51.436;5.980;2022-10-15T00:39:21;33.71;31.63;39.56;;
67300;Laerm;57658;51.436;5.980;2022-10-15T00:39:31;32.01;30.42;34.06;;
67300;Laerm;57658;51.436;5.980;2022-10-15T00:39:42;30.54;29.07;32.71;;
67300;Laerm;57658;51.436;5.980;2022-10-15T00:39:52;30.14;29.04;31.71;;
67300;Laerm;57658;51.436;5.980;2022-10-15T00:40:02;30.58;29.56;36.60;;
67300;Laerm;57658;51.436;5.980;2022-10-15T00:40:13;30.28;28.62;37.65;;
67300;Laerm;57658;51.436;5.980;2022-10-15T00:40:26;30.37;29.02;33.50;;
67300;Laerm;57658;51.436;5.980;2022-10-15T00:40:36;30.19;28.63;32.55;;
67300;Laerm;57658;51.436;5.980;2022-10-15T00:40:49;30.95;29.21;45.34;;
67300;Laerm;57658;51.436;5.980;2022-10-15T00:41:00;30.68;29.31;42.60;;
67300;Laerm;57658;51.436;5.980;2022-10-15T00:41:25;30.33;29.20;34.80;;
67300;Laerm;57658;51.436;5.980;2022-10-15T00:41:39;30.33;29.00;34.35;;
67300;Laerm;57658;51.436;5.980;2022-10-15T00:41:50;30.54;28.89;32.56;;
67300;Laerm;57658;51.436;5.980;2022-10-15T00:42:01;30.30;29.14;33.03;;
67300;Laerm;57658;51.436;5.980;2022-10-15T00:42:11;30.15;29.19;31.56;;
67300;Laerm;57658;51.436;5.980;2022-10-15T00:42:21;29.98;28.91;31.20;;
67300;Laerm;57658;51.436;5.980;2022-10-15T00:42:32;31.82;29.12;50.50;;
67300;Laerm;57658;51.436;5.980;2022-10-15T00:42:42;30.41;29.03;38.09;;
67300;Laerm;57658;51.436;5.980;2022-10-15T00:42:52;30.24;29.07;31.24;;
67300;Laerm;57658;51.436;5.980;2022-10-15T00:43:03;30.27;29.24;31.40;;
67300;Laerm;57658;51.436;5.980;2022-10-15T00:43:13;30.44;29.22;35.19;;
67300;Laerm;57658;51.436;5.980;2022-10-15T00:43:53;30.89;29.35;40.81;;
67300;Laerm;57658;51.436;5.980;2022-10-15T00:44:50;31.11;29.48;33.10;;
67300;Laerm;57658;51.436;5.980;2022-10-15T00:45:01;31.57;29.48;43.55;;
67300;Laerm;57658;51.436;5.980;2022-10-15T00:45:12;30.82;29.60;31.94;;
67300;Laerm;57658;51.436;5.980;2022-10-15T00:45:23;30.94;29.60;36.84;;
67300;Laerm;57658;51.436;5.980;2022-10-15T00:45:33;30.70;29.54;31.75;;
67300;Laerm;57658;51.436;5.980;2022-10-15T00:45:43;31.83;29.89;42.49;;
67300;Laerm;57658;51.436;5.980;2022-10-15T00:45:53;30.83;29.14;34.83;;
67300;Laerm;57658;51.436;5.980;2022-10-15T00:46:04;30.94;29.53;32.89;;
67300;Laerm;57658;51.436;5.980;2022-10-15T00:46:33;31.03;29.54;35.46;;
67300;Laerm;57658;51.436;5.980;2022-10-15T00:46:44;30.51;29.19;36.88;;
67300;Laerm;57658;51.436;5.980;2022-10-15T00:47:13;30.41;29.01;33.61;;
67300;Laerm;57658;51.436;5.980;2022-10-15T00:47:39;30.42;29.27;32.28;;
67300;Laerm;57658;51.436;5.980;2022-10-15T00:47:50;30.40;29.14;33.70;;
67300;Laerm;57658;51.436;5.980;2022-10-15T00:48:02;30.31;29.00;33.23;;
67300;Laerm;57658;51.436;5.980;2022-10-15T00:48:12;32.57;29.37;50.75;;
67300;Laerm;57658;51.436;5.980;2022-10-15T00:48:22;30.35;29.40;31.61;;
67300;Laerm;57658;51.436;5.980;2022-10-15T00:48:32;30.45;29.21;31.72;;
67300;Laerm;57658;51.436;5.980;2022-10-15T00:48:44;30.73;29.44;36.64;;
67300;Laerm;57658;51.436;5.980;2022-10-15T00:48:56;30.41;29.27;31.74;;
67300;Laerm;57658;51.436;5.980;2022-10-15T00:49:39;30.48;29.24;35.76;;
67300;Laerm;57658;51.436;5.980;2022-10-15T00:49:53;30.35;29.15;37.61;;
67300;Laerm;57658;51.436;5.980;2022-10-15T00:50:06;30.51;29.34;32.55;;
67300;Laerm;57658;51.436;5.980;2022-10-15T00:50:17;30.88;29.18;42.37;;
67300;Laerm;57658;51.436;5.980;2022-10-15T00:50:29;30.47;29.18;34.77;;
67300;Laerm;57658;51.436;5.980;2022-10-15T00:50:39;30.71;28.96;42.53;;
67300;Laerm;57658;51.436;5.980;2022-10-15T00:50:49;30.35;29.18;33.71;;
67300;Laerm;57658;51.436;5.980;2022-10-15T00:51:00;30.84;29.50;36.59;;
67300;Laerm;57658;51.436;5.980;2022-10-15T00:51:13;30.47;29.42;33.66;;
67300;Laerm;57658;51.436;5.980;2022-10-15T00:51:24;30.67;29.25;37.69;;
67300;Laerm;57658;51.436;5.980;2022-10-15T00:51:38;31.02;29.01;42.21;;
67300;Laerm;57658;51.436;5.980;2022-10-15T00:51:55;30.61;29.31;34.26;;
67300;Laerm;57658;51.436;5.980;2022-10-15T00:52:23;30.73;29.36;32.29;;
67300;Laerm;57658;51.436;5.980;2022-10-15T00:53:07;30.48;28.89;41.03;;
67300;Laerm;57658;51.436;5.980;2022-10-15T00:53:18;30.56;29.26;31.61;;
67300;Laerm;57658;51.436;5.980;2022-10-15T00:53:28;30.65;29.57;37.59;;
67300;Laerm;57658;51.436;5.980;2022-10-15T00:53:38;30.28;29.04;31.21;;
67300;Laerm;57658;51.436;5.980;2022-10-15T00:53:49;30.37;29.14;32.56;;
67300;Laerm;57658;51.436;5.980;2022-10-15T00:54:00;30.93;28.89;45.18;;
67300;Laerm;57658;51.436;5.980;2022-10-15T00:54:10;30.26;29.23;35.31;;
67300;Laerm;57658;51.436;5.980;2022-10-15T00:54:21;31.41;29.18;46.18;;
67300;Laerm;57658;51.436;5.980;2022-10-15T00:54:37;30.95;29.41;43.47;;
67300;Laerm;57658;51.436;5.980;2022-10-15T00:54:51;30.76;29.39;40.67;;
67300;Laerm;57658;51.436;5.980;2022-10-15T00:55:04;30.40;29.21;31.63;;
67300;Laerm;57658;51.436;5.980;2022-10-15T00:55:48;30.50;29.38;33.58;;
67300;Laerm;57658;51.436;5.980;2022-10-15T00:55:52;30.78;29.03;36.22;;
67300;Laerm;57658;51.436;5.980;2022-10-15T00:56:02;30.81;29.40;37.14;;
67300;Laerm;57658;51.436;5.980;2022-10-15T00:56:13;31.30;29.50;43.62;;
67300;Laerm;57658;51.436;5.980;2022-10-15T00:56:25;30.61;29.30;31.86;;
67300;Laerm;57658;51.436;5.980;2022-10-15T00:56:36;30.74;29.37;33.10;;
67300;Laerm;57658;51.436;5.980;2022-10-15T00:56:48;31.26;29.34;32.91;;
67300;Laerm;57658;51.436;5.980;2022-10-15T00:56:59;32.25;30.48;45.83;;
67300;Laerm;57658;51.436;5.980;2022-10-15T00:57:10;31.33;29.98;32.64;;
67300;Laerm;57658;51.436;5.980;2022-10-15T00:57:20;30.96;29.85;33.13;;
67300;Laerm;57658;51.436;5.980;2022-10-15T00:57:31;30.91;29.51;32.03;;
67300;Laerm;57658;51.436;5.980;2022-10-15T00:57:42;31.04;29.91;33.31;;
67300;Laerm;57658;51.436;5.980;2022-10-15T00:57:53;30.85;29.41;32.67;;
67300;Laerm;57658;51.436;5.980;2022-10-15T00:58:06;30.75;29.25;35.77;;
67300;Laerm;57658;51.436;5.980;2022-10-15T00:58:17;31.13;29.70;38.88;;
67300;Laerm;57658;51.436;5.980;2022-10-15T00:58:29;30.60;29.45;31.72;;
67300;Laerm;57658;51.436;5.980;2022-10-15T00:58:40;30.69;29.09;37.62;;
67300;Laerm;57658;51.436;5.980;2022-10-15T00:58:51;30.48;29.07;31.49;;
67300;Laerm;57658;51.436;5.980;2022-10-15T00:59:03;31.02;29.24;44.86;;
67300;Laerm;57658;51.436;5.980;2022-10-15T00:59:14;31.01;29.22;37.75;;
67300;Laerm;57658;51.436;5.980;2022-10-15T00:59:25;30.61;29.33;32.52;;
67300;Laerm;57658;51.436;5.980;2022-10-15T00:59:37;30.74;29.29;42.42;;
67300;Laerm;57658;51.436;5.980;2022-10-15T00:59:49;30.63;29.31;33.90;;
67300;Laerm;57658;51.436;5.980;2022-10-15T01:00:05;30.50;29.32;33.08;;
67300;Laerm;57658;51.436;5.980;2022-10-15T01:00:17;54.59;29.05;66.52;;
67300;Laerm;57658;51.436;5.980;2022-10-15T01:00:27;30.32;29.20;33.34;;
67300;Laerm;57658;51.436;5.980;2022-10-15T01:00:38;30.44;29.40;32.77;;
67300;Laerm;57658;51.436;5.980;2022-10-15T01:00:48;30.98;29.43;36.83;;
67300;Laerm;57658;51.436;5.980;2022-10-15T01:00:58;31.29;29.88;32.68;;
67300;Laerm;57658;51.436;5.980;2022-10-15T01:01:09;30.97;29.85;32.53;;
67300;Laerm;57658;51.436;5.980;2022-10-15T01:01:19;30.93;29.45;38.55;;
67300;Laerm;57658;51.436;5.980;2022-10-15T01:01:30;30.99;29.58;38.93;;
67300;Laerm;57658;51.436;5.980;2022-10-15T01:01:40;30.47;28.93;33.92;;
67300;Laerm;57658;51.436;5.980;2022-10-15T01:01:51;30.91;29.32;37.47;;
67300;Laerm;57658;51.436;5.980;2022-10-15T01:02:02;30.62;29.35;31.86;;
67300;Laerm;57658;51.436;5.980;2022-10-15T01:02:12;31.09;29.54;35.46;;
67300;Laerm;57658;51.436;5.980;2022-10-15T01:02:25;30.81;29.49;34.90;;
67300;Laerm;57658;51.436;5.980;2022-10-15T01:02:35;30.49;29.36;31.86;;
67300;Laerm;57658;51.436;5.980;2022-10-15T01:02:46;30.77;29.50;34.91;;
67300;Laerm;57658;51.436;5.980;2022-10-15T01:02:56;31.08;29.69;41.47;;
67300;Laerm;57658;51.436;5.980;2022-10-15T01:03:06;32.66;29.61;51.87;;
67300;Laerm;57658;51.436;5.980;2022-10-15T01:03:17;30.85;29.37;34.67;;
67300;Laerm;57658;51.436;5.980;2022-10-15T01:03:28;30.38;29.37;31.40;;
67300;Laerm;57658;51.436;5.980;2022-10-15T01:03:38;30.79;29.24;32.34;;
67300;Laerm;57658;51.436;5.980;2022-10-15T01:03:49;30.84;29.48;39.87;;
67300;Laerm;57658;51.436;5.980;2022-10-15T01:03:59;30.73;29.64;31.97;;
67300;Laerm;57658;51.436;5.980;2022-10-15T01:04:11;30.55;29.48;31.98;;
67300;Laerm;57658;51.436;5.980;2022-10-15T01:04:21;30.89;29.37;41.36;;
67300;Laerm;57658;51.436;5.980;2022-10-15T01:04:32;30.52;29.10;33.40;;
67300;Laerm;57658;51.436;5.980;2022-10-15T01:04:43;30.30;29.18;32.38;;
67300;Laerm;57658;51.436;5.980;2022-10-15T01:04:54;30.00;28.61;33.37;;